Time;durP1;ratioP1;P1;durP2;ratioP2;P2;SDS_P1;SDS_P2;PMS_P1;PMS_P2;Temp;Humidity;BMP_temperature;BMP_pressure;BME280_temperature;BME280_humidity;BME280_pressure;Samples;Min_cycle;Max_cycle;Signal;HPM_P1;HPM_P2
2022/10/02 00:01:33;;;;;;;70.35;19.77;;;5.00;1.00;;;5.12;100.00;98444.31;5028972;27;119446;-75
2022/10/02 00:04:08;;;;;;;68.97;20.83;;;5.00;1.00;;;5.13;100.00;98441.31;5057022;27;129914;-75
2022/10/02 00:06:44;;;;;;;39.05;18.80;;;5.00;1.00;;;5.15;100.00;98449.09;5064074;27;129040;-75
2022/10/02 00:09:23;;;;;;;42.15;18.55;;;5.00;1.00;;;5.27;100.00;98454.75;5043303;27;119787;-75
2022/10/02 00:11:58;;;;;;;49.15;16.55;;;5.00;1.00;;;5.16;100.00;98435.34;5046366;27;119517;-75
2022/10/02 00:14:33;;;;;;;58.83;16.88;;;4.90;1.00;;;4.97;100.00;98421.22;5049328;27;129584;-75
2022/10/02 00:17:03;;;;;;;60.92;16.60;;;4.80;1.00;;;4.84;100.00;98414.75;4996183;27;128960;-74
2022/10/02 00:19:33;;;;;;;41.35;16.50;;;4.80;1.00;;;4.62;100.00;98389.38;5028400;27;119330;-73
2022/10/02 00:22:22;;;;;;;42.90;17.23;;;4.70;1.00;;;4.45;100.00;98378.44;5043127;27;120190;-74
2022/10/02 00:25:02;;;;;;;36.28;16.05;;;4.70;1.00;;;4.49;100.00;98376.75;5027420;27;129570;-73
2022/10/02 00:27:47;;;;;;;33.47;15.30;;;4.70;1.00;;;4.51;100.00;98388.00;5042356;27;129478;-74
2022/10/02 00:30:18;;;;;;;38.75;16.27;;;4.70;1.00;;;4.57;100.00;98392.19;5012643;27;119141;-74
2022/10/02 00:33:03;;;;;;;39.85;15.95;;;4.70;1.00;;;4.57;100.00;98381.44;5043016;27;120032;-74
2022/10/02 00:35:52;;;;;;;37.35;15.65;;;4.70;1.00;;;4.50;100.00;98389.09;5042531;27;130618;-74
2022/10/02 00:38:37;;;;;;;44.72;17.88;;;4.70;1.00;;;4.45;100.00;98391.88;5027118;27;128998;-75
2022/10/02 00:41:43;;;;;;;31.48;15.05;;;4.70;1.00;;;4.52;100.00;98407.59;5023416;27;122358;-74
2022/10/02 00:44:28;;;;;;;34.30;16.55;;;4.70;1.00;;;4.70;100.00;98411.28;5028376;27;121910;-74
2022/10/02 00:47:03;;;;;;;43.25;18.92;;;4.70;1.00;;;4.81;100.00;98401.91;5011936;27;129554;-74
2022/10/02 00:49:54;;;;;;;25.58;15.32;;;4.80;1.00;;;4.93;100.00;98410.28;5042225;27;130539;-75
2022/10/02 00:52:45;;;;;;;39.92;17.30;;;4.80;1.00;;;4.89;100.00;98414.66;5042610;27;120485;-74
2022/10/02 00:55:51;;;;;;;29.08;14.82;;;4.80;1.00;;;5.04;100.00;98425.09;5042540;27;119530;-75
2022/10/02 00:59:09;;;;;;;37.95;16.52;;;4.80;1.00;;;5.08;100.00;98428.00;5043802;27;129768;-76
2022/10/02 01:01:42;;;;;;;43.85;17.40;;;4.90;1.00;;;5.04;100.00;98430.47;5031685;27;129448;-75
2022/10/02 01:04:19;;;;;;;34.67;16.65;;;4.80;1.00;;;5.07;100.00;98425.59;5044848;27;120764;-75
2022/10/02 01:06:48;;;;;;;40.45;18.90;;;4.80;1.00;;;5.03;100.00;98420.84;5042718;27;119447;-75
2022/10/02 01:09:20;;;;;;;53.92;18.92;;;4.80;1.00;;;4.84;100.00;98406.69;5026369;27;102996;-75
2022/10/02 01:11:49;;;;;;;63.63;19.05;;;4.70;1.00;;;4.58;100.00;98404.53;5041885;27;129449;-75
2022/10/02 01:14:18;;;;;;;71.25;17.58;;;4.60;1.00;;;4.42;100.00;98395.16;5026916;27;119385;-74
2022/10/02 01:16:47;;;;;;;70.25;16.20;;;4.50;1.00;;;4.27;100.00;98391.66;5007580;27;119573;-74
2022/10/02 01:19:26;;;;;;;147.95;19.55;;;4.40;1.00;;;4.20;100.00;98377.81;5041476;27;129953;-73
2022/10/02 01:22:07;;;;;;;138.93;19.63;;;4.30;1.00;;;4.13;100.00;98377.44;5041609;27;129358;-73
2022/10/02 01:24:49;;;;;;;69.93;15.10;;;4.30;1.00;;;4.23;100.00;98371.84;5008702;27;120264;-72
2022/10/02 01:27:18;;;;;;;36.92;13.35;;;4.30;1.00;;;4.36;100.00;98364.09;5042304;27;119430;-72
2022/10/02 01:29:51;;;;;;;35.33;15.85;;;4.40;1.00;;;4.54;100.00;98371.28;5041551;27;130240;-73
2022/10/02 01:32:21;;;;;;;35.55;16.13;;;4.40;1.00;;;4.64;100.00;98365.72;5041812;27;129324;-74
2022/10/02 01:34:50;;;;;;;45.40;16.08;;;4.50;1.00;;;4.74;100.00;98369.28;5040609;27;121996;-74
2022/10/02 01:37:21;;;;;;;32.45;13.80;;;4.50;1.00;;;4.76;100.00;98356.34;5023764;27;122366;-74
2022/10/02 01:39:52;;;;;;;46.10;14.80;;;4.50;1.00;;;4.68;100.00;98345.19;5027941;27;129532;-75
2022/10/02 01:42:22;;;;;;;62.35;16.20;;;4.50;1.00;;;4.68;100.00;98339.81;5043795;27;130313;-74
2022/10/02 01:44:52;;;;;;;27.98;13.68;;;4.40;1.00;;;4.66;100.00;98335.84;5062081;27;119811;-74
2022/10/02 01:47:30;;;;;;;21.80;12.35;;;4.40;1.00;;;4.53;100.00;98342.03;5062059;27;119720;-74
2022/10/02 01:50:12;;;;;;;24.70;12.80;;;4.40;1.00;;;4.44;100.00;98325.78;5061147;27;130152;-74
2022/10/02 01:52:55;;;;;;;23.63;12.95;;;4.40;1.00;;;4.52;100.00;98332.34;5030089;27;128844;-74
2022/10/02 01:55:39;;;;;;;25.00;12.80;;;4.40;1.00;;;4.59;100.00;98336.22;5048559;27;120062;-75
2022/10/02 01:58:24;;;;;;;26.10;13.55;;;4.40;1.00;;;4.62;100.00;98341.00;5044337;27;119402;-76
2022/10/02 02:01:05;;;;;;;39.63;12.95;;;4.40;1.00;;;4.59;100.00;98325.50;5060462;27;129825;-75
2022/10/02 02:03:44;;;;;;;28.23;12.40;;;4.30;1.00;;;4.40;100.00;98328.28;5029364;27;128338;-75
2022/10/02 02:06:21;;;;;;;24.23;11.73;;;4.30;1.00;;;4.25;100.00;98332.06;5063522;27;118804;-76
2022/10/02 02:09:03;;;;;;;22.88;12.00;;;4.20;1.00;;;4.26;100.00;98343.63;5061139;27;120076;-75
2022/10/02 02:11:39;;;;;;;22.67;12.60;;;4.20;1.00;;;4.32;100.00;98343.22;5046241;27;129378;-76
2022/10/02 02:14:14;;;;;;;30.30;13.63;;;4.30;1.00;;;4.40;100.00;98343.63;5061591;27;129478;-76
2022/10/02 02:16:45;;;;;;;44.53;16.52;;;4.40;1.00;;;4.46;100.00;98343.22;5061717;27;120032;-77
2022/10/02 02:19:21;;;;;;;34.17;16.25;;;4.50;1.00;;;4.54;100.00;98346.31;5062012;27;119826;-76
2022/10/02 02:21:55;;;;;;;26.27;14.70;;;4.50;1.00;;;4.55;100.00;98342.50;5046158;27;129872;-75
2022/10/02 02:24:33;;;;;;;29.42;15.30;;;4.50;1.00;;;4.58;100.00;98345.41;5061532;27;129533;-76
2022/10/02 02:27:04;;;;;;;33.72;15.00;;;4.50;1.00;;;4.62;100.00;98357.13;5060437;27;122248;-76
2022/10/02 02:29:37;;;;;;;26.95;15.02;;;4.50;1.00;;;4.66;100.00;98352.75;5061100;27;121904;-76
2022/10/02 02:32:11;;;;;;;34.55;15.27;;;4.50;1.00;;;4.70;100.00;98352.16;5061119;27;130255;-76
2022/10/02 02:34:45;;;;;;;38.88;16.65;;;4.50;1.00;;;4.74;100.00;98350.47;5061149;27;129798;-76
2022/10/02 02:37:20;;;;;;;35.13;18.58;;;4.50;1.00;;;4.78;100.00;98348.75;5061288;27;119988;-76
2022/10/02 02:39:53;;;;;;;78.05;40.38;;;4.50;1.00;;;4.80;100.00;98351.94;5061381;27;119520;-76
2022/10/02 02:42:27;;;;;;;57.17;29.95;;;4.50;1.00;;;4.79;100.00;98350.34;5060859;27;129664;-76
2022/10/02 02:45:01;;;;;;;85.38;31.05;;;4.40;1.00;;;4.81;100.00;98342.78;5061325;27;130267;-76
2022/10/02 02:47:39;;;;;;;59.35;30.88;;;4.40;1.00;;;4.85;100.00;98343.78;5061363;27;119523;-76
2022/10/02 02:50:13;;;;;;;57.33;27.88;;;4.50;1.00;;;4.85;100.00;98330.34;5061315;27;120449;-76
2022/10/02 02:52:48;;;;;;;30.77;16.05;;;4.50;1.00;;;4.83;100.00;98324.44;5059352;27;130358;-77
2022/10/02 02:55:23;;;;;;;25.73;14.53;;;4.50;1.00;;;4.73;100.00;98330.06;5060696;27;129596;-76
2022/10/02 02:57:59;;;;;;;28.38;15.07;;;4.40;1.00;;;4.71;100.00;98318.81;5060790;27;119620;-77
2022/10/02 03:00:28;;;;;;;25.92;14.13;;;4.40;1.00;;;4.73;100.00;98324.69;5063573;27;118594;-76
2022/10/02 03:02:57;;;;;;;27.73;14.05;;;4.40;1.00;;;4.72;100.00;98323.09;5060577;27;130080;-75
2022/10/02 03:05:28;;;;;;;28.58;15.45;;;4.40;1.00;;;4.78;100.00;98333.41;5062299;27;130104;-76
2022/10/02 03:08:00;;;;;;;22.42;12.50;;;4.50;1.00;;;4.85;100.00;98322.28;5061170;27;119544;-76
2022/10/02 03:10:46;;;;;;;22.75;12.52;;;4.50;1.00;;;4.87;100.00;98322.75;5061248;27;119443;-76
2022/10/02 03:13:31;;;;;;;20.03;12.30;;;4.60;1.00;;;4.89;100.00;98320.56;5060363;27;129771;-76
2022/10/02 03:16:16;;;;;;;21.38;13.27;;;4.60;1.00;;;4.93;100.00;98329.63;5045088;27;129114;-76
2022/10/02 03:19:01;;;;;;;22.67;13.73;;;4.60;1.00;;;4.98;100.00;98324.13;5058070;27;121918;-76
2022/10/02 03:21:35;;;;;;;20.40;12.77;;;4.60;15.30;;;4.88;100.00;98310.91;5059323;27;122039;-76
2022/10/02 03:24:11;;;;;;;20.27;12.68;;;4.60;99.90;;;4.71;100.00;98313.44;5060365;27;130595;-75
2022/10/02 03:26:44;;;;;;;19.50;12.05;;;4.50;99.90;;;4.58;100.00;98309.66;5045338;27;129258;-74
2022/10/02 03:29:20;;;;;;;15.75;10.50;;;4.50;99.90;;;4.47;100.00;98314.44;5060418;27;119510;-74
2022/10/02 03:31:50;;;;;;;18.63;10.85;;;4.50;99.90;;;4.51;100.00;98312.75;5060488;27;119475;-74
2022/10/02 03:34:19;;;;;;;18.70;10.38;;;4.50;99.90;;;4.52;100.00;98310.88;5060098;27;130373;-75
2022/10/02 03:36:48;;;;;;;17.92;10.15;;;4.50;99.90;;;4.52;100.00;98311.69;5060433;27;129419;-74
2022/10/02 03:39:16;;;;;;;18.77;11.05;;;4.50;99.90;;;4.57;100.00;98321.53;5060382;27;119881;-74
2022/10/02 03:41:46;;;;;;;17.92;10.43;;;4.50;99.90;;;4.65;100.00;98307.38;5060431;27;119464;-74
2022/10/02 03:44:15;;;;;;;17.88;9.80;;;4.60;99.90;;;4.60;100.00;98294.84;5058720;27;130857;-74
2022/10/02 03:46:44;;;;;;;13.68;8.80;;;4.50;99.90;;;4.59;100.00;98303.19;5059782;27;129547;-73
2022/10/02 03:49:12;;;;;;;12.90;8.50;;;4.60;99.90;;;4.58;100.00;98306.97;5060163;27;120036;-75
2022/10/02 03:51:40;;;;;;;15.25;9.82;;;4.50;99.90;;;4.58;100.00;98302.41;5060416;27;119373;-75
2022/10/02 03:54:17;;;;;;;17.05;10.32;;;4.60;99.90;;;4.59;100.00;98304.00;5045052;27;128916;-74
2022/10/02 03:56:55;;;;;;;14.85;8.85;;;4.60;99.90;;;4.62;100.00;98308.75;5059715;27;130034;-74
2022/10/02 03:59:43;;;;;;;14.02;9.25;;;4.60;99.90;;;4.62;100.00;98302.59;5059958;27;119976;-74
2022/10/02 04:02:27;;;;;;;13.48;8.55;;;4.60;99.90;;;4.54;100.00;98296.03;5060283;27;119471;-75
2022/10/02 04:05:02;;;;;;;12.95;9.10;;;4.60;99.90;;;4.55;100.00;98299.50;5060882;27;129996;-75
2022/10/02 04:07:38;;;;;;;18.37;10.13;;;4.60;99.90;;;4.62;100.00;98311.44;5059847;27;129691;-75
2022/10/02 04:10:27;;;;;;;13.90;9.00;;;4.60;99.90;;;4.63;100.00;98299.63;5043812;27;121311;-75
2022/10/02 04:13:04;;;;;;;15.10;9.23;;;4.60;99.90;;;4.61;100.00;98303.69;5059956;27;121840;-76
2022/10/02 04:15:53;;;;;;;13.90;8.95;;;4.70;99.90;;;4.57;100.00;98290.06;5041385;27;130470;-75
2022/10/02 04:18:27;;;;;;;13.63;9.10;;;4.70;99.90;;;4.58;100.00;98301.59;5044495;27;129129;-75
2022/10/02 04:21:03;;;;;;;12.95;8.90;;;4.70;99.90;;;4.60;100.00;98294.84;5059873;27;119579;-74
2022/10/02 04:23:37;;;;;;;14.98;9.45;;;4.70;99.90;;;4.66;100.00;98299.00;5059779;27;119373;-75
2022/10/02 04:26:12;;;;;;;15.05;9.10;;;4.80;99.90;;;4.72;100.00;98296.22;5059863;27;131663;-74
2022/10/02 04:28:46;;;;;;;15.43;9.20;;;4.90;99.90;;;4.75;100.00;98295.59;5059652;27;131332;-74
2022/10/02 04:31:17;;;;;;;14.50;9.73;;;4.90;99.90;;;4.81;100.00;98299.78;5044605;27;119443;-74
2022/10/02 04:33:45;;;;;;;14.20;9.48;;;4.90;99.90;;;4.82;100.00;98287.94;5048106;27;119261;-75
2022/10/02 04:36:37;;;;;;;14.57;9.05;;;4.90;98.00;;;4.84;100.00;98293.78;5062026;27;130023;-77
2022/10/02 04:39:50;;;;;;;15.40;9.00;;;5.00;95.80;;;4.90;100.00;98302.53;5063159;27;130046;-76
2022/10/02 04:42:40;;;;;;;17.02;8.75;;;5.00;94.60;;;4.89;100.00;98296.34;5051168;27;120197;-76
2022/10/02 04:45:33;;;;;;;18.70;8.80;;;5.10;90.40;;;4.89;100.00;98290.97;5063182;27;120087;-75
2022/10/02 04:48:54;;;;;;;17.67;9.52;;;5.00;84.00;;;4.83;100.00;98292.19;5047402;27;128892;-75
2022/10/02 04:51:46;;;;;;;23.83;9.35;;;5.10;79.20;;;4.86;100.00;98286.22;5041338;27;128650;-75
2022/10/02 04:54:43;;;;;;;16.73;9.38;;;5.10;74.40;;;4.86;100.00;98283.53;5063058;27;119451;-74
2022/10/02 04:57:48;;;;;;;22.73;10.00;;;5.10;68.70;;;4.92;100.00;98284.22;5045354;27;119355;-76
2022/10/02 05:00:19;;;;;;;17.52;10.50;;;5.10;91.50;;;5.07;100.00;98275.78;5047671;27;129146;-76
2022/10/02 05:03:11;;;;;;;28.75;9.93;;;5.20;90.50;;;5.15;100.00;98290.41;5062478;27;130654;-74
2022/10/02 05:06:01;;;;;;;26.08;10.82;;;5.20;85.00;;;5.11;100.00;98281.34;5063938;27;122051;-75
2022/10/02 05:09:10;;;;;;;21.58;9.65;;;5.20;79.90;;;5.18;100.00;98284.41;5062854;27;122226;-75
2022/10/02 05:12:06;;;;;;;23.83;10.57;;;5.30;71.90;;;5.25;100.00;98287.50;5047618;27;130144;-77
2022/10/02 05:15:30;;;;;;;43.58;10.52;;;5.30;57.30;;;5.21;100.00;98281.13;5047490;27;129254;-75
2022/10/02 05:18:24;;;;;;;27.70;10.07;;;5.30;43.70;;;5.14;100.00;98280.75;5049013;27;120453;-75
2022/10/02 05:21:31;;;;;;;29.85;11.27;;;5.30;33.30;;;5.21;100.00;98286.50;5044174;27;119414;-76
2022/10/02 05:24:21;;;;;;;32.72;10.20;;;5.30;27.80;;;5.27;100.00;98274.53;5062107;27;129695;-75
2022/10/02 05:27:11;;;;;;;36.60;10.57;;;5.30;24.70;;;5.29;100.00;98268.84;5062485;27;129372;-76
2022/10/02 05:30:07;;;;;;;42.15;10.88;;;5.40;12.20;;;5.29;100.00;98264.25;5062514;27;120148;-76
2022/10/02 05:33:03;;;;;;;29.77;9.68;;;5.40;12.40;;;5.36;100.00;98261.91;5062415;27;120567;-75
2022/10/02 05:36:14;;;;;;;53.83;10.27;;;5.50;8.60;;;5.36;100.00;98261.09;5060590;27;129912;-75
2022/10/02 05:39:04;;;;;;;43.47;9.70;;;5.40;1.00;;;5.39;100.00;98261.31;5061799;27;129553;-76
2022/10/02 05:41:45;;;;;;;44.63;8.63;;;5.50;1.00;;;5.40;100.00;98267.47;5030008;27;118750;-76
2022/10/02 05:44:20;;;;;;;61.95;11.07;;;5.50;1.00;;;5.48;100.00;98257.88;5060821;27;119382;-76
2022/10/02 05:46:57;;;;;;;83.13;11.38;;;5.60;1.00;;;5.44;100.00;98264.97;5061606;27;129986;-74
2022/10/02 05:49:33;;;;;;;33.55;8.82;;;5.60;1.00;;;5.55;100.00;98252.84;5061787;27;129800;-75
2022/10/02 05:52:08;;;;;;;30.08;8.68;;;5.70;1.00;;;5.46;100.00;98260.09;5046622;27;119349;-75
2022/10/02 05:54:51;;;;;;;51.33;9.20;;;5.60;1.00;;;5.52;100.00;98253.47;5061160;27;119710;-77
2022/10/02 05:57:30;;;;;;;47.85;9.10;;;5.70;1.00;;;5.65;100.00;98257.94;5029340;27;129037;-75
2022/10/02 06:00:16;;;;;;;57.78;9.85;;;5.80;1.00;;;5.74;100.00;98272.25;5061552;27;129498;-74
2022/10/02 06:02:53;;;;;;;37.33;9.40;;;5.80;1.00;;;5.74;100.00;98268.78;5060895;27;122304;-76
2022/10/02 06:05:30;;;;;;;40.40;10.27;;;5.90;1.00;;;5.74;100.00;98272.25;5063033;27;122275;-73
2022/10/02 06:08:03;;;;;;;;;;;5.90;1.00;;;5.83;100.00;98268.81;5061866;27;130459;-76
2022/10/02 06:10:38;;;;;;;30.67;9.18;;;5.90;1.00;;;5.97;100.00;98268.72;5061582;27;129267;-76
2022/10/02 06:13:13;;;;;;;33.95;10.10;;;6.00;1.00;;;5.90;100.00;98274.53;5061859;27;119727;-77
2022/10/02 06:15:50;;;;;;;35.42;9.48;;;5.90;1.00;;;5.99;100.00;98269.25;5061256;27;119895;-77
2022/10/02 06:18:23;;;;;;;37.92;9.05;;;6.00;1.00;;;6.10;100.00;98274.00;5061315;27;130368;-76
2022/10/02 06:20:56;;;;;;;35.53;9.55;;;6.10;3.40;;;5.98;100.00;98257.66;5061587;27;129846;-76
2022/10/02 06:23:34;;;;;;;21.65;9.13;;;6.10;2.10;;;6.16;100.00;98255.81;5043002;27;119543;-77
2022/10/02 06:26:11;;;;;;;30.65;9.05;;;6.10;6.70;;;6.13;100.00;98251.06;5061563;27;119254;-78
2022/10/02 06:28:44;;;;;;;22.10;11.93;;;6.10;8.10;;;6.09;100.00;98256.28;5045282;27;129189;-78
2022/10/02 06:31:22;;;;;;;20.48;9.52;;;6.10;7.50;;;6.01;100.00;98248.16;5061265;27;130168;-78
2022/10/02 06:33:53;;;;;;;21.55;8.15;;;6.10;5.40;;;6.16;100.00;98249.66;5062151;27;119841;-77
2022/10/02 06:36:58;;;;;;;15.32;7.75;;;6.20;7.80;;;6.34;100.00;98245.88;5063805;27;119446;-75
2022/10/02 06:39:48;;;;;;;13.45;7.47;;;6.30;8.70;;;6.47;100.00;98247.66;5061756;27;130883;-76
2022/10/02 06:42:36;;;;;;;12.60;8.00;;;6.40;9.90;;;6.45;100.00;98251.75;5061655;27;129174;-76
2022/10/02 06:45:15;;;;;;;12.98;6.30;;;6.40;4.80;;;6.63;100.00;98257.97;5061976;27;120138;-77
2022/10/02 06:48:01;;;;;;;11.13;6.70;;;6.60;4.30;;;6.70;100.00;98247.53;5064454;27;119176;-77
2022/10/02 06:50:53;;;;;;;9.95;6.40;;;6.50;1.00;;;6.75;100.00;98266.25;5054883;27;130575;-76
2022/10/02 06:53:44;;;;;;;10.18;6.18;;;6.60;1.00;;;6.96;100.00;98260.22;5028457;27;129353;-73
2022/10/02 06:56:33;;;;;;;10.57;6.40;;;6.70;1.00;;;7.07;100.00;98261.47;5059669;27;121863;-74
2022/10/02 06:59:20;;;;;;;11.25;6.15;;;6.80;1.00;;;6.98;100.00;98260.69;5062525;27;121754;-75
2022/10/02 07:02:02;;;;;;;8.65;5.45;;;6.70;1.00;;;7.12;100.00;98258.63;5045398;27;128936;-76
2022/10/02 07:05:04;;;;;;;9.10;5.32;;;6.90;1.00;;;7.00;100.00;98272.75;5061045;27;129544;-76
2022/10/02 07:07:48;;;;;;;8.95;5.50;;;6.80;1.00;;;7.20;100.00;98265.13;5047951;27;120430;-74
2022/10/02 07:10:34;;;;;;;9.48;5.72;;;7.00;1.00;;;7.36;100.00;98251.94;5048945;27;119711;-74
2022/10/02 07:13:38;;;;;;;8.50;4.68;;;7.10;1.00;;;7.38;100.00;98255.88;5040380;27;130806;-76
2022/10/02 07:16:23;;;;;;;7.18;4.88;;;7.10;1.00;;;7.56;100.00;98262.06;5057428;27;129698;-76
2022/10/02 07:19:18;;;;;;;7.75;5.15;;;7.20;1.00;;;7.79;100.00;98247.53;5061818;27;119736;-77
2022/10/02 07:21:59;;;;;;;7.88;5.30;;;7.40;1.00;;;7.84;100.00;98244.66;5061904;27;119694;-77
2022/10/02 07:24:49;;;;;;;7.20;4.80;;;7.50;1.00;;;8.00;100.00;98247.63;5042033;27;130575;-77
2022/10/02 07:27:25;;;;;;;7.13;4.28;;;7.50;1.00;;;8.10;100.00;98233.72;5060999;27;129479;-77
2022/10/02 07:30:02;;;;;;;7.45;4.88;;;7.60;1.00;;;8.20;100.00;98246.88;5062073;27;119939;-77
2022/10/02 07:32:47;;;;;;;7.03;4.72;;;7.70;1.00;;;8.26;100.00;98244.78;5061148;27;119490;-77
2022/10/02 07:35:38;;;;;;;7.75;4.47;;;7.80;1.00;;;8.46;100.00;98254.06;5061784;27;129761;-78
2022/10/02 07:38:53;;;;;;;8.43;5.25;;;8.00;1.00;;;8.40;100.00;98249.97;5046055;27;129361;-76
2022/10/02 07:41:47;;;;;;;6.82;4.78;;;7.90;1.00;;;8.21;100.00;98256.56;5061677;27;119908;-76
2022/10/02 07:44:40;;;;;;;6.68;4.63;;;7.80;1.00;;;8.18;100.00;98257.22;5046259;27;118649;-76
2022/10/02 07:47:25;;;;;;;8.10;5.32;;;7.90;1.00;;;8.31;100.00;98257.31;5061434;27;130231;-75
2022/10/02 07:50:03;;;;;;;13.90;8.00;;;7.90;1.00;;;8.31;100.00;98251.91;5065399;27;129476;-77
2022/10/02 07:52:43;;;;;;;48.22;23.13;;;7.90;99.90;;;8.41;100.00;98251.53;5063287;27;121191;-77
2022/10/02 07:55:18;;;;;;;9.90;5.65;;;8.00;99.90;;;8.30;100.00;98263.84;5064004;27;121933;-78
2022/10/02 07:58:03;;;;;;;9.30;6.00;;;7.90;99.90;;;8.22;100.00;98250.03;5061030;27;130381;-72
2022/10/02 08:00:35;;;;;;;6.88;4.78;;;7.90;99.90;;;8.11;100.00;98251.53;5059722;27;129979;-73
2022/10/02 08:03:12;;;;;;;7.50;5.00;;;7.90;99.90;;;8.01;100.00;98249.19;5060144;27;119825;-74
2022/10/02 08:05:44;;;;;;;7.40;5.22;;;7.90;99.90;;;8.02;100.00;98258.88;5062263;27;120335;-74
2022/10/02 08:08:24;;;;;;;8.93;5.50;;;7.80;99.90;;;8.19;100.00;98256.09;5047245;27;131275;-75
2022/10/02 08:10:58;;;;;;;9.85;6.28;;;8.00;99.90;;;8.17;100.00;98254.84;5063368;27;130451;-76
2022/10/02 08:13:33;;;;;;;10.38;7.60;;;8.00;99.90;;;8.14;100.00;98253.56;5049490;27;118254;-75
2022/10/02 08:16:04;;;;;;;20.05;17.65;;;8.00;99.90;;;8.08;100.00;98244.06;5047900;27;118914;-74
2022/10/02 08:18:39;;;;;;;10.65;8.75;;;7.90;99.90;;;8.25;100.00;98254.78;5061538;27;130003;-75
2022/10/02 08:21:14;;;;;;;12.32;8.48;;;8.10;99.90;;;8.38;100.00;98252.19;5065479;27;129440;-75
2022/10/02 08:23:49;;;;;;;26.58;21.33;;;8.10;99.90;;;8.45;100.00;98255.97;5063606;27;119812;-76
2022/10/02 08:26:25;;;;;;;25.30;20.88;;;8.20;99.90;;;8.58;100.00;98248.72;5048442;27;119210;-76
2022/10/02 08:29:00;;;;;;;17.92;13.23;;;8.20;99.90;;;8.76;100.00;98251.34;5047252;27;129996;-75
2022/10/02 08:31:29;;;;;;;11.70;7.70;;;8.30;99.90;;;8.41;100.00;98257.75;5062966;27;129433;-75
2022/10/02 08:34:04;;;;;;;9.80;7.38;;;8.10;99.90;;;8.42;100.00;98250.41;5047769;27;118432;-76
2022/10/02 08:37:02;;;;;;;8.57;6.57;;;8.10;99.90;;;8.52;100.00;98255.44;5063909;27;119026;-77
2022/10/02 08:40:08;;;;;;;8.57;6.35;;;8.20;99.90;;;8.58;100.00;98251.44;5063476;27;130259;-75
2022/10/02 08:43:38;;;;;;;8.98;6.38;;;8.10;99.90;;;8.43;100.00;98257.38;5030056;27;129234;-76
2022/10/02 08:47:02;;;;;;;12.40;8.57;;;8.10;99.90;;;8.13;100.00;98253.91;4981070;27;120971;-75
2022/10/02 08:50:06;;;;;;;12.27;8.15;;;8.10;99.90;;;8.15;100.00;98247.06;5063019;27;122270;-75
2022/10/02 08:53:14;;;;;;;21.73;16.67;;;8.10;99.90;;;8.28;100.00;98247.94;5046189;27;129551;-75
2022/10/02 08:56:33;;;;;;;14.13;9.93;;;8.10;99.90;;;8.35;100.00;98252.81;5003315;27;128971;-76
2022/10/02 09:00:04;;;;;;;10.25;7.60;;;8.20;99.90;;;8.37;100.00;98256.03;5024134;27;119537;-76
2022/10/02 09:03:23;;;;;;;9.05;6.30;;;8.10;99.90;;;8.30;100.00;98259.22;5063224;27;119135;-75
2022/10/02 09:07:05;;;;;;;9.50;6.30;;;8.10;99.90;;;8.42;100.00;98258.53;5064809;27;130586;-76
2022/10/02 09:10:27;;;;;;;9.82;6.25;;;8.20;99.90;;;8.48;100.00;98259.13;5062485;27;129571;-76
2022/10/02 09:14:09;;;;;;;9.68;6.82;;;8.20;99.90;;;8.31;100.00;98252.69;5047027;27;118939;-76
2022/10/02 09:17:03;;;;;;;10.25;7.22;;;8.20;99.90;;;8.31;100.00;98252.69;5062582;27;120299;-75
2022/10/02 09:19:48;;;;;;;10.70;7.28;;;8.20;99.90;;;8.25;100.00;98248.59;5059450;27;130346;-77
2022/10/02 09:23:00;;;;;;;12.82;10.23;;;8.20;99.90;;;8.27;100.00;98257.97;5043757;27;129491;-76
2022/10/02 09:25:37;;;;;;;32.38;28.95;;;8.30;99.90;;;8.33;100.00;98250.44;5030270;27;118846;-75
2022/10/02 09:29:09;;;;;;;12.38;9.20;;;8.30;99.90;;;8.29;100.00;98249.53;5062463;27;119453;-75
2022/10/02 09:32:27;;;;;;;16.02;12.45;;;8.20;99.90;;;8.23;100.00;98246.22;5062315;27;129962;-75
2022/10/02 09:35:49;;;;;;;12.80;9.25;;;8.20;99.90;;;8.09;100.00;98241.03;5062027;27;129941;-75
2022/10/02 09:39:08;;;;;;;29.45;25.10;;;8.20;99.90;;;8.17;100.00;98247.53;5053309;27;119581;-79
2022/10/02 09:42:57;;;;;;;26.70;22.95;;;8.20;99.90;;;8.16;100.00;98251.34;5048131;27;118787;-76
2022/10/02 09:46:18;;;;;;;21.50;18.80;;;8.20;99.90;;;8.15;100.00;98259.78;5047454;27;129764;-76
2022/10/02 09:49:56;;;;;;;31.42;27.98;;;8.20;99.90;;;8.20;100.00;98246.88;5062009;27;129527;-78
2022/10/02 09:53:01;;;;;;;25.23;21.88;;;8.20;99.90;;;8.42;100.00;98247.72;5045994;27;120796;-78
2022/10/02 09:56:13;;;;;;;20.98;15.63;;;8.20;99.90;;;8.36;100.00;98249.03;5043931;27;122652;-76
2022/10/02 09:59:39;;;;;;;25.45;22.75;;;8.10;99.90;;;8.35;100.00;98247.41;5044628;27;130972;-79
2022/10/02 10:02:32;;;;;;;20.88;15.30;;;8.10;99.90;;;8.34;100.00;98238.53;5046301;27;129499;-78
2022/10/02 10:06:12;;;;;;;17.50;13.05;;;8.20;99.90;;;8.26;100.00;98237.47;5063321;27;119943;-77
2022/10/02 10:09:19;;;;;;;25.08;21.08;;;8.10;99.90;;;8.38;100.00;98227.84;5020334;27;118223;-79
2022/10/02 10:12:40;;;;;;;26.58;21.58;;;8.20;99.90;;;8.28;100.00;98237.91;5061032;27;131015;-75
2022/10/02 10:15:55;;;;;;;22.70;18.45;;;8.10;99.90;;;8.27;100.00;98239.06;5054235;27;130584;-75
2022/10/02 10:19:15;;;;;;;18.48;13.30;;;8.10;99.90;;;8.26;100.00;98240.16;5051328;27;119756;-74
2022/10/02 10:22:38;;;;;;;10.82;7.80;;;8.10;99.90;;;7.96;100.00;98230.47;5051811;27;120037;-73
2022/10/02 10:25:39;;;;;;;13.13;9.35;;;8.00;99.90;;;7.87;100.00;98233.22;5058929;27;130334;-73
2022/10/02 10:29:00;;;;;;;13.73;9.88;;;8.00;99.90;;;8.05;100.00;98228.50;5061488;27;130014;-73
2022/10/02 10:32:29;;;;;;;15.32;10.32;;;8.00;99.90;;;8.01;100.00;98222.16;5060911;27;119623;-74
2022/10/02 10:35:56;;;;;;;69.22;45.20;;;8.00;99.90;;;7.94;100.00;98230.78;5059722;27;119927;-72
2022/10/02 10:38:44;;;;;;;12.63;9.90;;;7.90;99.90;;;7.79;100.00;98221.31;5060803;27;130249;-76
2022/10/02 10:42:00;;;;;;;20.95;18.95;;;7.90;99.90;;;7.84;100.00;98226.53;5060907;27;130071;-74
2022/10/02 10:45:23;;;;;;;15.98;13.65;;;7.90;99.90;;;7.95;100.00;98226.16;5044839;27;118719;-75
2022/10/02 10:48:26;;;;;;;48.35;42.75;;;8.00;99.90;;;7.80;100.00;98212.09;5044351;27;120013;-72
2022/10/02 10:51:29;;;;;;;68.95;53.35;;;7.90;99.90;;;7.95;100.00;98207.25;5026953;27;129449;-75
2022/10/02 10:54:57;;;;;;;385.77;276.60;;;8.00;99.90;;;8.05;100.00;98212.31;5010144;27;129190;-76
2022/10/02 10:57:42;;;;;;;42.65;31.15;;;8.00;99.90;;;8.00;100.00;98212.50;5014548;27;121794;-77
2022/10/02 11:00:23;;;;;;;50.63;41.20;;;7.90;99.90;;;8.14;100.00;98221.16;5040598;27;121949;-75
2022/10/02 11:03:31;;;;;;;38.90;34.92;;;8.00;99.90;;;8.13;100.00;98214.16;5025303;27;128718;-73
2022/10/02 11:06:30;;;;;;;;;;;8.00;99.90;;;8.08;100.00;98212.44;5042805;27;129433;-73
2022/10/02 11:09:58;;;;;;;17.75;12.50;;;8.00;99.90;;;7.95;100.00;98210.75;5042002;27;120035;-74
2022/10/02 11:13:01;;;;;;;18.05;14.88;;;7.90;99.90;;;7.89;100.00;98204.75;5038315;27;120092;-74
2022/10/02 11:16:38;;;;;;;17.38;9.90;;;7.90;99.90;;;7.93;100.00;98204.88;5041964;27;129705;-73
2022/10/02 11:19:32;;;;;;;14.15;9.82;;;7.90;99.90;;;7.89;100.00;98204.75;4957556;27;129896;-74
2022/10/02 11:22:44;;;;;;;14.88;10.75;;;7.90;99.90;;;7.92;100.00;98209.50;5041811;27;119916;-74
2022/10/02 11:25:32;;;;;;;18.20;14.68;;;7.90;99.90;;;7.73;100.00;98206.41;5036351;27;119943;-72
2022/10/02 11:28:46;;;;;;;17.20;15.13;;;7.80;99.90;;;7.85;100.00;98203.81;5019971;27;130563;-75
2022/10/02 11:31:37;;;;;;;17.38;14.07;;;7.90;99.90;;;7.73;100.00;98192.91;5038899;27;129773;-75
2022/10/02 11:34:55;;;;;;;32.72;25.67;;;7.80;99.90;;;7.65;100.00;98199.13;5021250;27;120436;-73
2022/10/02 11:37:51;;;;;;;14.30;10.23;;;7.80;99.90;;;7.71;100.00;98200.53;5040005;27;119831;-74
2022/10/02 11:40:45;;;;;;;23.30;19.67;;;7.90;99.90;;;7.65;100.00;98193.72;5024176;27;130348;-74